Time;durP1;ratioP1;P1;durP2;ratioP2;P2;SDS_P1;SDS_P2;PMS_P1;PMS_P2;Temp;Humidity;BMP_temperature;BMP_pressure;BME280_temperature;BME280_humidity;BME280_pressure;Samples;Min_cycle;Max_cycle;Signal;HPM_P1;HPM_P2
2023/07/07 00:00:03;;;;;;;9.70;4.40;;;;;;;14.89;96.57;100693.06;177716;1259;46101;-82
2023/07/07 00:04:06;;;;;;;9.90;5.50;;;;;;;14.83;96.29;100690.00;177277;1260;46205;-82
2023/07/07 00:08:11;;;;;;;9.40;5.90;;;;;;;14.79;96.31;100690.63;177461;1257;46011;-82
2023/07/07 00:12:16;;;;;;;6.80;5.10;;;;;;;14.74;95.44;100693.73;177528;1259;59753;-82
2023/07/07 00:16:20;;;;;;;7.70;6.20;;;;;;;14.67;96.27;100696.48;176892;1259;46124;-82
2023/07/07 00:20:23;;;;;;;8.10;4.90;;;;;;;14.61;96.59;100699.50;177456;1259;46052;-82
2023/07/07 00:24:26;;;;;;;7.50;5.40;;;;;;;14.60;96.25;100700.02;177234;1259;45985;-83
2023/07/07 00:28:30;;;;;;;7.60;6.40;;;;;;;14.59;95.97;100699.40;178073;1261;46046;-82
2023/07/07 00:32:33;;;;;;;8.90;5.00;;;;;;;14.55;95.91;100701.70;177161;1259;58534;-82
2023/07/07 00:36:37;;;;;;;6.40;5.20;;;;;;;14.51;95.88;100704.35;177211;1258;46042;-82
2023/07/07 00:40:40;;;;;;;6.70;5.40;;;;;;;14.55;95.96;100701.67;177222;1259;45994;-82
2023/07/07 00:45:05;;;;;;;6.10;5.50;;;;;;;14.57;95.40;100703.95;177430;1261;46145;-82
2023/07/07 00:49:14;;;;;;;6.00;4.70;;;;;;;14.54;95.10;100702.30;177407;1259;45969;-83
2023/07/07 00:53:18;;;;;;;8.50;5.00;;;;;;;14.49;95.31;100701.35;177278;1259;59442;-83
2023/07/07 00:57:21;;;;;;;8.60;5.90;;;;;;;14.46;95.53;100706.99;177520;1259;45940;-83
2023/07/07 01:01:24;;;;;;;18.80;5.70;;;;;;;14.42;95.58;100711.05;177771;1261;46224;-82
2023/07/07 01:05:29;;;;;;;7.70;5.40;;;;;;;14.35;95.74;100716.66;177856;1260;46205;-83
2023/07/07 01:09:32;;;;;;;8.40;5.70;;;;;;;14.33;96.26;100721.19;177257;1259;46004;-82
2023/07/07 01:13:36;;;;;;;7.20;6.00;;;;;;;14.31;96.45;100722.77;177248;1259;59328;-83
2023/07/07 01:18:05;;;;;;;11.30;5.80;;;;;;;14.27;99.33;100725.98;177400;1259;46048;-83
2023/07/07 01:22:45;;;;;;;9.30;5.20;;;;;;;14.21;100.00;100729.89;177399;1262;46063;-84
2023/07/07 01:27:03;;;;;;;7.70;5.50;;;;;;;14.21;99.95;100725.08;177482;1259;44851;-84
2023/07/07 01:31:15;;;;;;;12.60;4.40;;;;;;;14.22;99.18;100721.77;177591;1261;46133;-84
2023/07/07 01:35:20;;;;;;;6.20;5.00;;;;;;;14.18;98.51;100726.82;177350;1261;59415;-82
2023/07/07 01:39:25;;;;;;;10.10;5.90;;;;;;;14.15;97.99;100729.20;177573;1259;46074;-84
2023/07/07 01:43:40;;;;;;;10.10;5.50;;;;;;;14.10;97.83;100727.67;177209;1259;46004;-83
2023/07/07 01:47:52;;;;;;;8.40;5.20;;;;;;;14.07;97.44;100730.60;177630;1259;46114;-83
2023/07/07 01:52:07;;;;;;;7.40;5.80;;;;;;;13.97;98.99;100733.13;177156;1259;46632;-84
2023/07/07 01:56:13;;;;;;;11.50;6.20;;;;;;;13.89;98.00;100735.55;177680;1259;58241;-84
2023/07/07 02:00:17;;;;;;;6.30;4.40;;;;;;;13.73;98.46;100731.66;177471;1258;46098;-84
2023/07/07 02:04:20;;;;;;;7.80;5.70;;;;;;;13.52;98.70;100726.37;177512;1259;44857;-83
2023/07/07 02:08:23;;;;;;;8.20;5.40;;;;;;;13.42;98.85;100728.81;177512;1258;44815;-83
2023/07/07 02:12:26;;;;;;;7.60;4.40;;;;;;;13.41;98.98;100729.55;176441;1259;46007;-82
2023/07/07 02:16:29;;;;;;;12.00;6.70;;;;;;;13.44;99.06;100727.55;177570;1259;58359;-82
2023/07/07 02:20:32;;;;;;;8.60;5.30;;;;;;;13.44;99.75;100725.38;176965;1259;45971;-82
2023/07/07 02:24:35;;;;;;;5.60;4.60;;;;;;;13.42;100.00;100732.90;177398;1261;45971;-82
2023/07/07 02:28:38;;;;;;;9.20;5.20;;;;;;;13.39;100.00;100731.19;177357;1259;46126;-82
2023/07/07 02:32:41;;;;;;;8.20;5.00;;;;;;;13.37;100.00;100735.46;177348;1258;46898;-82
2023/07/07 02:36:44;;;;;;;7.50;5.70;;;;;;;13.38;100.00;100736.24;177154;1260;57030;-83
2023/07/07 02:40:47;;;;;;;6.60;5.60;;;;;;;13.41;99.99;100738.64;177503;1259;46083;-83
2023/07/07 02:44:51;;;;;;;8.10;5.20;;;;;;;13.41;99.72;100738.51;177786;1259;45852;-83
2023/07/07 02:48:54;;;;;;;10.20;6.40;;;;;;;13.28;100.00;100748.09;177265;1259;45972;-83
2023/07/07 02:52:57;;;;;;;10.70;4.50;;;;;;;13.08;99.96;100748.92;177348;1259;45974;-83
2023/07/07 02:57:01;;;;;;;15.70;6.90;;;;;;;12.95;99.59;100756.59;177297;1262;59463;-83
2023/07/07 03:01:10;;;;;;;7.90;6.90;;;;;;;12.84;100.00;100757.67;177278;1259;45933;-83
2023/07/07 03:05:13;;;;;;;8.80;5.60;;;;;;;12.77;100.00;100764.39;177200;1261;46037;-83
2023/07/07 03:09:16;;;;;;;10.00;5.80;;;;;;;12.72;100.00;100769.20;177293;1259;46011;-83
2023/07/07 03:13:19;;;;;;;11.10;5.70;;;;;;;12.74;100.00;100768.70;177428;1264;46132;-83
2023/07/07 03:17:22;;;;;;;8.10;6.70;;;;;;;12.80;100.00;100769.43;177324;1259;59455;-83
2023/07/07 03:21:26;;;;;;;7.30;5.70;;;;;;;12.92;100.00;100767.17;177756;1259;45956;-84
2023/07/07 03:25:30;;;;;;;12.80;6.80;;;;;;;12.95;100.00;100771.38;177933;1260;46103;-84
2023/07/07 03:29:33;;;;;;;8.60;6.60;;;;;;;13.04;100.00;100777.21;178151;1259;46129;-84
2023/07/07 03:33:39;;;;;;;10.10;7.60;;;;;;;13.16;100.00;100773.56;177692;1263;46004;-84
2023/07/07 03:37:42;;;;;;;11.60;6.60;;;;;;;13.21;100.00;100778.10;177854;1259;59474;-84
2023/07/07 03:41:45;;;;;;;10.00;6.60;;;;;;;13.20;100.00;100777.17;178359;1260;45976;-84
2023/07/07 03:45:48;;;;;;;10.30;8.20;;;;;;;13.25;100.00;100776.91;178235;1261;46154;-85
2023/07/07 03:49:51;;;;;;;10.90;7.60;;;;;;;13.40;100.00;100777.60;178739;1262;43971;-84
2023/07/07 03:53:54;;;;;;;11.40;7.50;;;;;;;13.60;100.00;100780.31;177974;1263;46131;-84
2023/07/07 03:57:57;;;;;;;11.80;7.70;;;;;;;13.87;100.00;100781.41;177075;1259;59138;-84
2023/07/07 04:02:00;;;;;;;13.00;7.90;;;;;;;14.13;100.00;100784.14;177284;1259;46027;-84
2023/07/07 04:06:03;;;;;;;9.20;6.80;;;;;;;14.36;100.00;100789.25;177249;1260;46276;-84
2023/07/07 04:10:08;;;;;;;9.90;6.00;;;;;;;14.62;100.00;100789.70;177620;1259;45941;-84
2023/07/07 04:14:11;;;;;;;12.00;7.20;;;;;;;14.91;100.00;100788.98;177290;1260;46098;-84
2023/07/07 04:18:15;;;;;;;9.80;7.80;;;;;;;15.22;100.00;100796.46;177373;1260;60144;-83
2023/07/07 04:22:18;;;;;;;8.70;6.00;;;;;;;15.48;100.00;100800.42;178465;1260;46197;-83
2023/07/07 04:26:23;;;;;;;38.90;12.10;;;;;;;15.70;100.00;100798.02;177789;1260;45926;-84
2023/07/07 04:30:26;;;;;;;9.50;7.00;;;;;;;16.53;100.00;100797.26;178740;1262;46135;-84
2023/07/07 04:34:30;;;;;;;10.00;7.60;;;;;;;17.87;99.89;100792.98;178042;1261;46069;-84
2023/07/07 04:38:34;;;;;;;12.20;7.20;;;;;;;19.00;93.37;100801.68;178305;1260;60537;-84
2023/07/07 04:42:37;;;;;;;9.00;6.80;;;;;;;19.98;88.12;100805.31;178135;1263;44880;-84
2023/07/07 04:46:40;;;;;;;16.80;7.70;;;;;;;20.84;83.48;100809.40;178147;1259;45956;-83
2023/07/07 04:50:43;;;;;;;8.50;6.40;;;;;;;21.18;78.78;100811.23;178967;1263;46124;-84
2023/07/07 04:54:49;;;;;;;14.10;5.70;;;;;;;21.40;74.62;100815.25;179850;1259;44011;-84
2023/07/07 04:58:53;;;;;;;7.90;5.90;;;;;;;21.27;74.12;100815.20;179577;1259;58564;-84
2023/07/07 05:02:56;;;;;;;11.30;6.20;;;;;;;20.61;76.43;100820.64;179068;1258;46006;-84
2023/07/07 05:06:59;;;;;;;9.90;7.00;;;;;;;20.01;78.86;100823.20;178666;1263;46144;-84
2023/07/07 05:11:02;;;;;;;14.30;8.10;;;;;;;19.76;83.45;100833.86;177901;1259;46121;-84
2023/07/07 05:15:06;;;;;;;15.30;8.10;;;;;;;20.35;83.80;100836.98;177975;1261;46138;-84
2023/07/07 05:19:09;;;;;;;12.00;7.80;;;;;;;21.12;77.97;100835.32;178471;1263;59691;-84
2023/07/07 05:23:12;;;;;;;9.30;6.80;;;;;;;21.78;75.69;100827.67;178117;1260;44852;-85
2023/07/07 05:27:15;;;;;;;8.80;5.70;;;;;;;22.40;74.16;100832.77;179049;1261;46082;-84
2023/07/07 05:31:19;;;;;;;6.80;5.20;;;;;;;23.05;71.66;100834.86;178756;1260;45963;-84
2023/07/07 05:35:22;;;;;;;9.90;5.30;;;;;;;23.61;70.04;100836.90;178964;1259;44796;-84
2023/07/07 05:39:25;;;;;;;6.50;5.20;;;;;;;24.23;67.78;100839.39;178611;1263;59554;-84
2023/07/07 05:43:29;;;;;;;18.20;5.20;;;;;;;24.95;64.29;100844.05;179184;1258;45561;-84
2023/07/07 05:47:32;;;;;;;7.60;4.30;;;;;;;25.49;61.49;100846.44;179278;1260;46019;-84
2023/07/07 05:51:35;;;;;;;9.20;4.70;;;;;;;25.90;58.75;100850.73;179139;1258;43788;-84
2023/07/07 05:55:39;;;;;;;5.10;4.10;;;;;;;26.00;57.77;100849.94;179400;1259;46056;-84
2023/07/07 05:59:42;;;;;;;5.50;4.20;;;;;;;25.94;58.33;100853.10;179773;1259;57934;-84
2023/07/07 06:03:46;;;;;;;10.10;5.90;;;;;;;26.17;57.92;100852.59;179700;1259;44475;-84
2023/07/07 06:07:50;;;;;;;6.80;3.80;;;;;;;26.85;56.19;100851.38;179478;1259;45967;-84
2023/07/07 06:11:54;;;;;;;10.30;4.00;;;;;;;27.33;53.35;100848.89;180029;1259;46034;-85
2023/07/07 06:15:58;;;;;;;10.00;6.40;;;;;;;27.56;52.89;100852.34;180003;1260;45964;-85
2023/07/07 06:20:02;;;;;;;5.80;3.70;;;;;;;27.98;52.69;100846.56;179789;1259;59068;-85
2023/07/07 06:24:05;;;;;;;6.20;3.70;;;;;;;28.38;51.96;100845.16;179980;1260;46167;-85
2023/07/07 06:28:09;;;;;;;8.20;6.90;;;;;;;28.56;52.77;100850.49;180047;1260;44541;-85
2023/07/07 06:32:13;;;;;;;5.60;4.20;;;;;;;28.58;52.62;100853.77;179812;1260;46121;-85
2023/07/07 06:36:16;;;;;;;6.30;5.70;;;;;;;28.79;51.76;100852.75;180102;1259;44882;-85
2023/07/07 06:40:20;;;;;;;6.10;3.40;;;;;;;28.98;52.07;100852.69;179667;1259;57946;-85
2023/07/07 06:44:23;;;;;;;5.30;3.90;;;;;;;29.43;50.65;100855.86;179790;1259;44594;-85
2023/07/07 06:48:26;;;;;;;3.20;2.90;;;;;;;29.46;51.59;100854.63;179850;1260;44517;-85
2023/07/07 06:52:30;;;;;;;3.60;2.70;;;;;;;29.38;50.17;100860.29;180067;1257;44848;-85
2023/07/07 06:56:33;;;;;;;3.90;2.30;;;;;;;29.28;48.09;100859.73;180011;1260;45989;-85
2023/07/07 07:00:37;;;;;;;4.40;3.60;;;;;;;29.41;47.10;100860.25;179775;1260;58262;-85
2023/07/07 07:04:40;;;;;;;10.80;7.20;;;;;;;29.59;47.17;100863.58;179969;1258;45995;-85
2023/07/07 07:08:44;;;;;;;5.80;3.70;;;;;;;29.65;45.95;100865.64;180245;1260;44774;-85
2023/07/07 07:12:48;;;;;;;3.20;2.50;;;;;;;29.82;46.67;100869.45;179933;1260;46261;-85
2023/07/07 07:16:52;;;;;;;3.90;2.60;;;;;;;29.89;46.06;100873.41;180218;1259;45219;-85
2023/07/07 07:20:55;;;;;;;5.20;2.10;;;;;;;29.80;45.68;100873.27;180004;1258;58268;-85
2023/07/07 07:24:59;;;;;;;2.40;1.90;;;;;;;29.80;44.33;100873.50;179850;1259;44611;-85
2023/07/07 07:29:02;;;;;;;7.40;5.10;;;;;;;29.79;44.74;100872.75;179839;1260;45952;-85
2023/07/07 07:33:10;;;;;;;3.30;2.00;;;;;;;29.75;44.19;100874.36;179882;1260;46395;-85
2023/07/07 07:37:15;;;;;;;3.30;2.30;;;;;;;29.84;44.37;100876.09;180081;1260;45977;-85
2023/07/07 07:41:18;;;;;;;4.90;1.90;;;;;;;29.87;43.42;100881.67;179923;1259;58309;-85
2023/07/07 07:45:23;;;;;;;2.60;1.80;;;;;;;29.78;42.97;100877.88;180020;1260;44670;-85
2023/07/07 07:49:27;;;;;;;;;;;;;;;29.72;43.96;100877.64;180128;1259;46180;-85
2023/07/07 07:53:31;;;;;;;3.20;2.30;;;;;;;29.80;43.63;100880.55;179970;1259;43936;-85
2023/07/07 07:57:34;;;;;;;3.90;2.10;;;;;;;29.75;42.93;100880.89;180132;1259;45835;-85
2023/07/07 08:01:38;;;;;;;3.20;2.10;;;;;;;29.49;43.62;100881.59;179839;1259;59081;-85
2023/07/07 08:05:41;;;;;;;3.00;2.30;;;;;;;29.24;44.63;100879.23;179831;1259;45209;-85
2023/07/07 08:09:45;;;;;;;3.30;1.90;;;;;;;29.26;44.26;100879.02;180126;1259;43869;-85
2023/07/07 08:13:48;;;;;;;5.10;2.40;;;;;;;29.34;44.36;100874.81;179820;1259;46110;-85
2023/07/07 08:17:52;;;;;;;4.10;2.40;;;;;;;29.51;44.19;100872.73;179926;1258;45978;-86
2023/07/07 08:21:57;;;;;;;4.30;2.10;;;;;;;29.62;44.73;100872.97;179998;1259;57955;-85
2023/07/07 08:26:00;;;;;;;2.70;1.40;;;;;;;29.66;42.59;100870.85;180222;1259;46081;-85
2023/07/07 08:30:08;;;;;;;3.80;1.50;;;;;;;29.70;42.34;100870.70;179959;1259;44155;-85
2023/07/07 08:34:11;;;;;;;4.30;2.60;;;;;;;29.57;42.63;100875.59;180001;1259;45075;-85
2023/07/07 08:38:14;;;;;;;2.10;1.90;;;;;;;29.07;42.40;100874.15;179824;1259;45944;-85
2023/07/07 08:42:29;;;;;;;2.90;2.60;;;;;;;28.82;44.30;100874.02;179875;1259;58774;-85
2023/07/07 08:46:41;;;;;;;4.10;2.00;;;;;;;28.83;43.40;100872.59;180114;1259;43986;-85
2023/07/07 08:50:53;;;;;;;3.20;2.00;;;;;;;28.84;43.07;100874.08;179985;1259;45892;-85
2023/07/07 08:55:12;;;;;;;2.80;1.90;;;;;;;28.89;42.51;100876.79;179689;1262;45937;-85
2023/07/07 08:59:33;;;;;;;5.20;1.50;;;;;;;29.02;42.32;100874.96;180163;1259;44189;-85
2023/07/07 09:03:53;;;;;;;5.90;2.40;;;;;;;29.20;44.19;100876.27;179773;1260;60154;-85
2023/07/07 09:08:01;;;;;;;4.20;1.90;;;;;;;29.23;44.51;100877.25;179916;1259;240896;-85
2023/07/07 09:12:20;;;;;;;2.70;1.50;;;;;;;29.36;43.69;100877.89;179880;1259;47527;-85
2023/07/07 09:16:34;;;;;;;6.50;2.20;;;;;;;29.48;42.35;100876.33;179963;1259;46089;-85
2023/07/07 09:20:38;;;;;;;4.30;1.80;;;;;;;29.56;43.89;100875.20;180264;1258;50513;-85
2023/07/07 09:24:47;;;;;;;3.30;2.00;;;;;;;29.46;43.64;100871.80;180026;1259;58413;-85
2023/07/07 09:28:55;;;;;;;2.20;1.40;;;;;;;29.60;43.62;100869.74;180018;1259;46141;-85
2023/07/07 09:32:59;;;;;;;3.20;1.80;;;;;;;29.98;44.17;100868.32;179912;1260;44577;-85
2023/07/07 09:37:59;;;;;;;2.20;2.00;;;;;;;30.22;43.87;100861.39;180101;1259;46058;-86
2023/07/07 09:42:47;;;;;;;2.70;1.90;;;;;;;30.32;43.39;100858.61;179419;1265;46201;-85
2023/07/07 09:46:50;;;;;;;2.30;1.80;;;;;;;30.41;44.22;100854.17;179421;1265;59881;-85
2023/07/07 09:50:57;;;;;;;1.60;1.40;;;;;;;30.45;44.82;100854.98;179359;1269;44734;-85
2023/07/07 09:55:09;;;;;;;28.60;6.30;;;;;;;30.49;43.90;100861.48;179595;1265;43795;-86
2023/07/07 09:59:18;;;;;;;2.80;2.20;;;;;;;30.58;42.20;100855.80;179431;1264;45934;-85
2023/07/07 10:03:28;;;;;;;2.60;2.00;;;;;;;30.46;41.53;100856.95;179506;1265;46056;-86
2023/07/07 10:07:38;;;;;;;2.70;2.10;;;;;;;30.43;40.94;100858.16;179446;1264;58053;-85
2023/07/07 10:11:43;;;;;;;7.80;1.90;;;;;;;30.41;40.08;100860.52;179924;1258;45927;-85
2023/07/07 10:16:05;;;;;;;3.10;1.50;;;;;;;30.35;40.50;100851.36;180139;1259;44508;-87
2023/07/07 10:20:10;;;;;;;3.40;1.20;;;;;;;30.22;40.10;100843.48;179866;1261;46012;-85
2023/07/07 10:24:14;;;;;;;3.20;1.70;;;;;;;29.59;39.92;100854.49;179657;1259;45898;-85
2023/07/07 10:28:19;;;;;;;2.80;1.10;;;;;;;29.39;40.18;100848.98;179904;1258;59021;-85
2023/07/07 10:32:24;;;;;;;2.40;1.40;;;;;;;29.38;41.22;100842.59;179885;1259;44225;-85
2023/07/07 10:36:30;;;;;;;1.10;1.00;;;;;;;29.24;41.36;100838.27;179766;1257;46006;-85
2023/07/07 10:40:35;;;;;;;2.20;1.50;;;;;;;29.01;40.63;100841.65;180141;1258;46048;-86
2023/07/07 10:44:39;;;;;;;1.40;1.20;;;;;;;29.08;40.03;100840.27;179684;1259;45955;-85
2023/07/07 10:48:46;;;;;;;2.60;1.40;;;;;;;29.14;41.01;100832.66;179831;1259;57952;-85
2023/07/07 10:52:49;;;;;;;1.40;1.30;;;;;;;29.28;40.00;100829.31;179771;1259;46076;-85
2023/07/07 10:57:15;;;;;;;3.30;1.90;;;;;;;29.36;41.26;100825.05;180061;1258;44581;-85
2023/07/07 11:01:33;;;;;;;1.40;1.00;;;;;;;29.49;41.13;100824.29;179846;1259;44339;-85
2023/07/07 11:05:51;;;;;;;2.20;1.70;;;;;;;29.59;41.87;100830.89;179631;1259;44861;-85
2023/07/07 11:10:34;;;;;;;15.80;2.90;;;;;;;29.43;40.92;100829.14;179833;1259;58666;-85
2023/07/07 11:15:22;;;;;;;42.80;6.90;;;;;;;29.14;40.90;100826.48;179824;1259;45986;-86
2023/07/07 11:19:25;;;;;;;14.00;4.00;;;;;;;28.95;41.90;100826.29;179628;1263;43314;-85
2023/07/07 11:23:41;;;;;;;2.60;1.50;;;;;;;29.14;42.48;100824.84;179491;1263;43809;-86
2023/07/07 11:28:13;;;;;;;4.30;1.00;;;;;;;29.27;41.36;100823.48;179840;1263;45908;-86
2023/07/07 11:32:38;;;;;;;3.20;1.50;;;;;;;29.13;40.95;100825.69;179515;1263;59167;-86
2023/07/07 11:36:44;;;;;;;2.80;1.40;;;;;;;29.09;40.94;100822.81;179660;1263;45246;-85
2023/07/07 11:40:56;;;;;;;3.30;1.40;;;;;;;29.04;40.69;100823.86;179474;1264;46008;-86
2023/07/07 11:45:08;;;;;;;1.50;1.40;;;;;;;29.22;41.14;100820.56;179609;1263;44456;-86
2023/07/07 11:49:39;;;;;;;3.00;0.90;;;;;;;29.24;38.49;100823.10;179330;1263;45949;-85
2023/07/07 11:53:50;;;;;;;3.10;1.50;;;;;;;29.31;37.60;100823.20;179368;1263;59157;-86
2023/07/07 11:58:58;;;;;;;1.10;1.00;;;;;;;29.45;37.36;100823.92;179789;1257;46126;-85
2023/07/07 12:03:20;;;;;;;7.10;1.60;;;;;;;29.68;39.89;100820.69;179028;1268;46222;-86
2023/07/07 12:07:47;;;;;;;1.30;1.10;;;;;;;29.74;40.48;100817.61;179025;1268;46005;-86
2023/07/07 12:12:04;;;;;;;1.90;1.70;;;;;;;29.84;39.60;100815.22;179039;1268;44165;-86
2023/07/07 12:16:20;;;;;;;3.30;1.40;;;;;;;29.90;37.23;100807.64;179235;1270;58163;-86
2023/07/07 12:20:31;;;;;;;2.00;1.10;;;;;;;29.88;36.74;100806.31;178892;1268;44587;-86
2023/07/07 12:24:53;;;;;;;1.90;1.70;;;;;;;29.72;38.91;100809.59;179032;1268;46238;-86
2023/07/07 12:29:00;;;;;;;1.40;0.70;;;;;;;29.50;40.35;100807.31;178882;1269;46221;-85
2023/07/07 12:33:05;;;;;;;1.90;1.10;;;;;;;29.30;38.96;100803.78;178900;1268;43559;-86
2023/07/07 12:37:18;;;;;;;73.70;16.60;;;;;;;29.37;41.19;100798.02;179172;1259;58007;-85
2023/07/07 12:41:25;;;;;;;3.00;1.30;;;;;;;29.54;40.78;100792.02;179571;1259;46077;-86
2023/07/07 12:45:31;;;;;;;4.20;2.00;;;;;;;29.61;40.30;100779.15;179643;1259;45252;-86
2023/07/07 12:49:38;;;;;;;2.30;1.30;;;;;;;29.67;39.54;100779.89;179957;1259;44724;-85
2023/07/07 12:53:45;;;;;;;3.20;1.50;;;;;;;29.76;37.96;100776.74;179952;1258;46120;-85
2023/07/07 12:58:04;;;;;;;3.00;1.20;;;;;;;29.86;37.54;100777.93;180126;1259;59139;-85
2023/07/07 13:02:16;;;;;;;1.90;1.80;;;;;;;29.88;38.50;100771.15;180224;1259;46025;-85
2023/07/07 13:06:34;;;;;;;3.30;1.10;;;;;;;29.93;38.12;100764.96;179989;1259;45934;-85
2023/07/07 13:10:40;;;;;;;2.30;1.40;;;;;;;29.96;37.30;100766.59;180048;1259;43973;-84
2023/07/07 13:14:44;;;;;;;2.40;1.50;;;;;;;29.98;37.14;100758.70;179936;1258;46117;-85
2023/07/07 13:18:48;;;;;;;3.40;1.40;;;;;;;30.00;37.41;100759.55;180434;1258;59842;-85
2023/07/07 13:22:59;;;;;;;3.00;0.90;;;;;;;30.12;38.93;100760.23;180030;1259;46089;-85
2023/07/07 13:27:02;;;;;;;5.70;1.50;;;;;;;30.29;38.52;100754.91;179805;1259;46030;-85
2023/07/07 13:31:15;;;;;;;2.00;1.40;;;;;;;30.31;39.31;100752.33;180444;1258;43966;-85
2023/07/07 13:35:20;;;;;;;4.20;1.30;;;;;;;30.25;39.07;100757.11;180006;1262;46546;-85
2023/07/07 13:39:24;;;;;;;1.60;1.20;;;;;;;30.20;37.65;100752.43;180047;1259;57939;-85
2023/07/07 13:43:33;;;;;;;1.80;1.50;;;;;;;30.17;40.02;100754.85;180066;1259;46120;-85
2023/07/07 13:47:43;;;;;;;3.50;1.20;;;;;;;30.29;36.67;100748.54;180166;1259;44073;-85
2023/07/07 13:51:52;;;;;;;1.70;1.30;;;;;;;30.47;36.52;100746.27;180339;1259;44571;-85
2023/07/07 13:55:58;;;;;;;3.70;1.20;;;;;;;30.56;37.61;100745.28;180215;1257;44226;-85
2023/07/07 14:00:02;;;;;;;1.80;1.60;;;;;;;30.53;37.83;100746.63;180144;1259;57546;-85
2023/07/07 14:04:13;;;;;;;2.10;1.70;;;;;;;30.41;37.09;100743.27;180173;1258;45924;-84
2023/07/07 14:08:21;;;;;;;1.30;1.10;;;;;;;30.30;38.57;100740.16;180283;1258;44624;-85
2023/07/07 14:12:28;;;;;;;3.00;1.30;;;;;;;30.35;37.68;100739.25;180342;1258;47803;-86
2023/07/07 14:16:43;;;;;;;5.00;1.30;;;;;;;30.46;36.98;100735.32;180427;1259;44733;-85
2023/07/07 14:20:50;;;;;;;2.20;1.50;;;;;;;30.37;36.82;100730.84;179960;1258;58696;-85
2023/07/07 14:24:54;;;;;;;3.50;1.40;;;;;;;30.37;36.83;100727.98;180136;1259;44714;-84
2023/07/07 14:28:58;;;;;;;2.00;1.60;;;;;;;30.53;37.14;100725.17;180474;1261;44269;-85
2023/07/07 14:33:02;;;;;;;1.80;0.90;;;;;;;30.70;36.73;100723.18;180213;1259;44375;-85
2023/07/07 14:37:05;;;;;;;1.60;1.00;;;;;;;30.82;35.54;100717.22;179999;1259;46064;-86
2023/07/07 14:41:15;;;;;;;1.20;1.10;;;;;;;30.91;35.65;100713.77;180163;1257;57933;-86
2023/07/07 14:45:27;;;;;;;3.10;1.20;;;;;;;30.82;35.77;100713.92;179793;1258;43727;-86
2023/07/07 14:49:34;;;;;;;5.20;2.00;;;;;;;30.75;36.10;100710.14;180171;1259;43806;-85
2023/07/07 14:53:37;;;;;;;2.60;1.50;;;;;;;30.88;37.80;100709.78;179932;1257;45854;-85
2023/07/07 14:57:47;;;;;;;2.30;0.90;;;;;;;30.89;37.07;100703.85;179888;1258;45987;-85
2023/07/07 15:01:56;;;;;;;3.00;1.40;;;;;;;30.82;38.02;100700.95;180061;1259;58224;-85
2023/07/07 15:06:15;;;;;;;2.20;1.30;;;;;;;30.85;37.16;100700.12;180223;1257;44665;-86
2023/07/07 15:10:18;;;;;;;1.70;1.40;;;;;;;30.87;36.72;100702.68;179936;1259;44585;-86
2023/07/07 15:14:22;;;;;;;2.40;1.10;;;;;;;30.87;36.82;100701.33;179898;1259;45933;-86
2023/07/07 15:18:26;;;;;;;6.50;1.30;;;;;;;30.81;36.55;100698.80;179985;1259;43740;-85
2023/07/07 15:22:29;;;;;;;1.60;1.10;;;;;;;30.89;37.26;100695.47;180042;1259;62056;-85
2023/07/07 15:26:33;;;;;;;3.20;1.20;;;;;;;31.00;36.64;100692.10;180094;1259;45766;-86
2023/07/07 15:30:37;;;;;;;3.50;2.60;;;;;;;31.08;35.30;100692.10;180148;1258;46074;-86
2023/07/07 15:34:40;;;;;;;2.00;1.30;;;;;;;31.20;35.92;100692.27;180038;1259;46114;-86
2023/07/07 15:38:50;;;;;;;4.70;1.60;;;;;;;31.29;36.72;100686.90;179879;1259;46047;-85
2023/07/07 15:42:53;;;;;;;2.30;1.70;;;;;;;31.15;36.22;100686.00;179994;1259;58660;-85
2023/07/07 15:46:57;;;;;;;1.60;1.00;;;;;;;31.01;36.79;100688.30;180731;1257;44177;-85
2023/07/07 15:51:00;;;;;;;1.50;0.90;;;;;;;30.85;35.75;100683.36;181179;1259;43965;-86
2023/07/07 15:55:04;;;;;;;5.70;1.60;;;;;;;30.73;35.76;100689.40;180399;1259;46127;-86
2023/07/07 15:59:17;;;;;;;1.70;1.00;;;;;;;30.67;35.63;100689.53;180221;1258;44616;-85
2023/07/07 16:03:21;;;;;;;6.20;1.60;;;;;;;30.62;37.13;100688.34;180315;1259;60386;-85
2023/07/07 16:07:26;;;;;;;2.40;1.60;;;;;;;30.49;38.02;100689.85;180099;1259;45024;-91
2023/07/07 16:11:29;;;;;;;1.80;1.20;;;;;;;30.33;37.45;100690.06;179281;1259;46090;-89
2023/07/07 16:15:33;;;;;;;4.30;2.30;;;;;;;30.18;38.54;100692.04;180097;1258;46026;-90
2023/07/07 16:19:37;;;;;;;2.70;2.00;;;;;;;30.22;39.32;100694.88;179413;1259;45943;-88
2023/07/07 16:23:42;;;;;;;2.40;1.80;;;;;;;30.35;39.52;100690.02;179945;1258;61121;-88
2023/07/07 16:27:46;;;;;;;100.50;20.50;;;;;;;30.44;40.16;100691.86;179502;1258;45959;-89
2023/07/07 16:31:49;;;;;;;1.90;1.40;;;;;;;30.47;40.44;100688.38;179409;1261;44630;-89
2023/07/07 16:35:55;;;;;;;1.60;1.40;;;;;;;30.50;39.32;100687.27;179141;1258;46034;-89
2023/07/07 16:40:18;;;;;;;5.30;1.90;;;;;;;30.51;38.13;100687.05;179487;1259;46130;-88
2023/07/07 16:44:22;;;;;;;3.10;2.40;;;;;;;30.46;38.98;100685.81;179584;1259;59215;-89
2023/07/07 16:48:26;;;;;;;2.80;1.30;;;;;;;30.36;40.73;100681.43;179456;1259;44192;-89
2023/07/07 16:52:49;;;;;;;2.10;1.70;;;;;;;30.20;39.72;100681.94;179437;1259;46146;-89
2023/07/07 16:56:56;;;;;;;1.30;1.20;;;;;;;30.04;40.35;100681.74;180143;1258;45960;-89
2023/07/07 17:01:00;;;;;;;5.60;1.40;;;;;;;29.94;39.59;100683.81;179643;1257;46053;-89
2023/07/07 17:05:04;;;;;;;1.80;0.90;;;;;;;29.87;39.22;100683.89;179622;1259;59243;-89
2023/07/07 17:09:22;;;;;;;1.80;1.30;;;;;;;29.76;38.96;100682.36;179394;1258;45963;-88
2023/07/07 17:13:25;;;;;;;2.00;1.40;;;;;;;29.57;40.04;100687.92;179522;1262;46118;-89
2023/07/07 17:17:29;;;;;;;2.60;1.80;;;;;;;29.39;40.26;100688.86;179205;1261;46096;-89
2023/07/07 17:21:32;;;;;;;5.40;2.00;;;;;;;29.29;39.37;100685.20;179347;1262;46107;-89
2023/07/07 17:25:36;;;;;;;2.70;2.00;;;;;;;29.19;39.97;100685.73;179033;1261;57890;-89
2023/07/07 17:29:40;;;;;;;5.20;2.20;;;;;;;29.03;40.48;100684.81;179413;1260;45911;-89
2023/07/07 17:33:43;;;;;;;3.20;1.20;;;;;;;28.89;41.68;100683.35;179366;1262;44570;-89
2023/07/07 17:37:47;;;;;;;4.70;2.00;;;;;;;28.76;42.93;100686.31;179462;1260;44611;-88
2023/07/07 17:41:51;;;;;;;7.90;2.90;;;;;;;28.62;43.58;100687.12;180041;1260;46043;-89
2023/07/07 17:45:55;;;;;;;2.90;2.50;;;;;;;28.47;44.31;100685.48;179565;1260;58225;-88
2023/07/07 17:50:03;;;;;;;9.30;6.40;;;;;;;28.30;44.50;100690.30;179598;1260;45969;-88
2023/07/07 17:54:11;;;;;;;8.90;6.10;;;;;;;28.11;45.30;100690.05;179797;1262;44449;-88
2023/07/07 17:58:14;;;;;;;53.10;16.20;;;;;;;27.95;45.93;100692.80;179277;1261;46094;-89
2023/07/07 18:02:18;;;;;;;39.20;14.00;;;;;;;27.72;46.71;100693.20;179470;1260;45933;-88
2023/07/07 18:06:26;;;;;;;33.10;18.60;;;;;;;27.42;47.94;100697.66;179529;1262;59426;-88
2023/07/07 18:10:33;;;;;;;20.60;11.30;;;;;;;27.10;47.94;100700.36;179813;1260;44669;-88
2023/07/07 18:14:37;;;;;;;9.30;4.40;;;;;;;26.84;49.32;100701.61;179227;1262;44113;-88
2023/07/07 18:18:41;;;;;;;13.90;5.40;;;;;;;26.60;50.20;100700.46;180132;1261;46029;-88
2023/07/07 18:23:05;;;;;;;4.60;1.70;;;;;;;26.42;49.97;100699.76;179703;1261;46156;-88
2023/07/07 18:27:10;;;;;;;12.60;3.00;;;;;;;26.31;51.79;100703.73;180209;1264;59970;-88
2023/07/07 18:31:27;;;;;;;3.60;2.40;;;;;;;26.05;53.86;100703.92;179682;1260;44312;-88
2023/07/07 18:35:32;;;;;;;4.90;2.30;;;;;;;25.71;56.01;100707.75;179348;1260;46130;-87
2023/07/07 18:39:39;;;;;;;4.00;2.30;;;;;;;25.29;57.03;100709.99;179097;1262;44120;-88
2023/07/07 18:43:44;;;;;;;4.00;2.20;;;;;;;25.03;57.16;100713.23;179637;1260;45947;-88
2023/07/07 18:47:59;;;;;;;3.50;1.90;;;;;;;24.86;58.48;100716.35;178873;1260;61884;-87
2023/07/07 18:52:04;;;;;;;4.20;2.60;;;;;;;24.64;60.45;100719.63;179525;1262;46072;-90